sensor_id;sensor_type;location;lat;lon;timestamp;P1;durP1;ratioP1;P2;durP2;ratioP2
47513;SDS011;33951;51.988;5.910;2023-03-05T00:01:17;15.80;;;4.18;;
47513;SDS011;33951;51.988;5.910;2023-03-05T00:03:46;13.02;;;4.03;;
47513;SDS011;33951;51.988;5.910;2023-03-05T00:06:12;12.73;;;3.67;;
47513;SDS011;33951;51.988;5.910;2023-03-05T00:08:38;14.63;;;3.83;;
47513;SDS011;33951;51.988;5.910;2023-03-05T00:11:07;14.45;;;3.40;;
47513;SDS011;33951;51.988;5.910;2023-03-05T00:13:34;11.75;;;3.42;;
47513;SDS011;33951;51.988;5.910;2023-03-05T00:16:08;14.82;;;4.40;;
47513;SDS011;33951;51.988;5.910;2023-03-05T00:18:35;14.45;;;3.60;;
47513;SDS011;33951;51.988;5.910;2023-03-05T00:21:02;10.93;;;3.75;;
47513;SDS011;33951;51.988;5.910;2023-03-05T00:23:42;12.75;;;3.67;;
47513;SDS011;33951;51.988;5.910;2023-03-05T00:26:16;15.32;;;3.95;;
47513;SDS011;33951;51.988;5.910;2023-03-05T00:28:45;14.27;;;4.13;;
47513;SDS011;33951;51.988;5.910;2023-03-05T00:31:19;10.75;;;3.45;;
47513;SDS011;33951;51.988;5.910;2023-03-05T00:33:50;14.15;;;3.33;;
47513;SDS011;33951;51.988;5.910;2023-03-05T00:36:19;17.38;;;4.25;;
47513;SDS011;33951;51.988;5.910;2023-03-05T00:38:45;9.63;;;3.00;;
47513;SDS011;33951;51.988;5.910;2023-03-05T00:41:11;14.55;;;3.03;;
47513;SDS011;33951;51.988;5.910;2023-03-05T00:43:37;10.02;;;3.00;;
47513;SDS011;33951;51.988;5.910;2023-03-05T00:46:03;13.13;;;4.60;;
47513;SDS011;33951;51.988;5.910;2023-03-05T00:48:28;13.25;;;2.92;;
47513;SDS011;33951;51.988;5.910;2023-03-05T00:50:54;13.32;;;3.20;;
47513;SDS011;33951;51.988;5.910;2023-03-05T00:53:23;14.45;;;3.97;;
47513;SDS011;33951;51.988;5.910;2023-03-05T00:55:48;13.18;;;3.67;;
47513;SDS011;33951;51.988;5.910;2023-03-05T00:58:14;19.05;;;3.75;;
47513;SDS011;33951;51.988;5.910;2023-03-05T05:00:24;10.50;;;4.38;;
47513;SDS011;33951;51.988;5.910;2023-03-05T05:02:50;13.70;;;4.93;;
47513;SDS011;33951;51.988;5.910;2023-03-05T05:05:17;14.63;;;4.13;;
47513;SDS011;33951;51.988;5.910;2023-03-05T05:07:45;11.40;;;3.85;;
47513;SDS011;33951;51.988;5.910;2023-03-05T05:10:11;13.63;;;4.25;;
47513;SDS011;33951;51.988;5.910;2023-03-05T05:12:38;13.30;;;4.85;;
47513;SDS011;33951;51.988;5.910;2023-03-05T05:15:04;12.23;;;3.78;;
47513;SDS011;33951;51.988;5.910;2023-03-05T05:17:31;13.38;;;4.28;;
47513;SDS011;33951;51.988;5.910;2023-03-05T05:19:58;5.95;;;3.40;;
47513;SDS011;33951;51.988;5.910;2023-03-05T05:22:24;18.45;;;3.92;;
47513;SDS011;33951;51.988;5.910;2023-03-05T05:24:51;9.32;;;3.88;;
47513;SDS011;33951;51.988;5.910;2023-03-05T05:27:17;10.65;;;3.80;;
47513;SDS011;33951;51.988;5.910;2023-03-05T05:29:42;14.63;;;3.13;;
47513;SDS011;33951;51.988;5.910;2023-03-05T05:32:10;12.63;;;3.90;;
47513;SDS011;33951;51.988;5.910;2023-03-05T05:34:36;17.33;;;3.72;;
47513;SDS011;33951;51.988;5.910;2023-03-05T05:37:01;8.88;;;3.65;;
47513;SDS011;33951;51.988;5.910;2023-03-05T05:39:27;16.02;;;3.50;;
47513;SDS011;33951;51.988;5.910;2023-03-05T05:41:53;7.72;;;3.92;;
47513;SDS011;33951;51.988;5.910;2023-03-05T05:44:18;13.40;;;3.55;;
47513;SDS011;33951;51.988;5.910;2023-03-05T05:46:44;7.57;;;3.35;;
47513;SDS011;33951;51.988;5.910;2023-03-05T05:49:10;10.90;;;3.55;;
47513;SDS011;33951;51.988;5.910;2023-03-05T05:51:35;11.68;;;3.45;;
47513;SDS011;33951;51.988;5.910;2023-03-05T05:54:01;12.63;;;3.92;;
47513;SDS011;33951;51.988;5.910;2023-03-05T05:56:27;18.33;;;3.72;;
47513;SDS011;33951;51.988;5.910;2023-03-05T05:58:52;14.68;;;3.78;;
47513;SDS011;33951;51.988;5.910;2023-03-05T06:01:22;14.35;;;4.25;;
47513;SDS011;33951;51.988;5.910;2023-03-05T06:03:50;11.10;;;3.63;;
47513;SDS011;33951;51.988;5.910;2023-03-05T06:06:19;14.05;;;4.63;;
47513;SDS011;33951;51.988;5.910;2023-03-05T06:08:47;5.53;;;3.15;;
47513;SDS011;33951;51.988;5.910;2023-03-05T06:11:13;12.52;;;3.38;;
47513;SDS011;33951;51.988;5.910;2023-03-05T06:13:39;7.18;;;3.58;;
47513;SDS011;33951;51.988;5.910;2023-03-05T06:16:06;7.22;;;3.60;;
47513;SDS011;33951;51.988;5.910;2023-03-05T06:18:34;9.55;;;3.75;;
47513;SDS011;33951;51.988;5.910;2023-03-05T06:21:01;8.20;;;3.08;;
47513;SDS011;33951;51.988;5.910;2023-03-05T06:23:35;10.45;;;3.05;;
47513;SDS011;33951;51.988;5.910;2023-03-05T06:26:03;9.52;;;3.35;;
47513;SDS011;33951;51.988;5.910;2023-03-05T06:28:30;8.23;;;3.50;;
47513;SDS011;33951;51.988;5.910;2023-03-05T06:31:04;13.35;;;3.78;;
47513;SDS011;33951;51.988;5.910;2023-03-05T06:33:29;6.22;;;3.45;;
47513;SDS011;33951;51.988;5.910;2023-03-05T06:35:56;12.25;;;4.05;;
47513;SDS011;33951;51.988;5.910;2023-03-05T06:38:21;9.32;;;3.25;;
47513;SDS011;33951;51.988;5.910;2023-03-05T06:40:47;6.80;;;2.72;;
47513;SDS011;33951;51.988;5.910;2023-03-05T06:43:13;10.07;;;3.72;;
47513;SDS011;33951;51.988;5.910;2023-03-05T06:45:39;10.10;;;3.10;;
47513;SDS011;33951;51.988;5.910;2023-03-05T06:48:04;9.43;;;3.42;;
47513;SDS011;33951;51.988;5.910;2023-03-05T06:50:33;8.30;;;2.72;;
47513;SDS011;33951;51.988;5.910;2023-03-05T06:52:59;11.68;;;3.22;;
47513;SDS011;33951;51.988;5.910;2023-03-05T06:55:25;12.75;;;3.35;;
47513;SDS011;33951;51.988;5.910;2023-03-05T06:57:50;11.02;;;4.57;;
47513;SDS011;33951;51.988;5.910;2023-03-05T07:00:16;10.55;;;3.53;;
47513;SDS011;33951;51.988;5.910;2023-03-05T07:02:42;10.48;;;3.10;;
47513;SDS011;33951;51.988;5.910;2023-03-05T07:05:07;10.02;;;3.67;;
47513;SDS011;33951;51.988;5.910;2023-03-05T07:07:33;10.52;;;3.70;;
47513;SDS011;33951;51.988;5.910;2023-03-05T07:09:59;8.90;;;4.10;;
47513;SDS011;33951;51.988;5.910;2023-03-05T07:12:25;9.70;;;3.65;;
47513;SDS011;33951;51.988;5.910;2023-03-05T07:14:51;15.60;;;3.30;;
47513;SDS011;33951;51.988;5.910;2023-03-05T07:17:23;11.38;;;3.58;;
47513;SDS011;33951;51.988;5.910;2023-03-05T07:19:49;12.95;;;3.20;;
47513;SDS011;33951;51.988;5.910;2023-03-05T07:22:15;11.18;;;4.15;;
47513;SDS011;33951;51.988;5.910;2023-03-05T07:24:40;16.45;;;4.38;;
47513;SDS011;33951;51.988;5.910;2023-03-05T07:27:06;12.50;;;3.60;;
47513;SDS011;33951;51.988;5.910;2023-03-05T07:29:32;12.50;;;3.42;;
47513;SDS011;33951;51.988;5.910;2023-03-05T07:31:57;11.52;;;4.00;;
47513;SDS011;33951;51.988;5.910;2023-03-05T07:34:23;10.20;;;4.03;;
47513;SDS011;33951;51.988;5.910;2023-03-05T07:36:49;9.20;;;3.25;;
47513;SDS011;33951;51.988;5.910;2023-03-05T07:39:16;8.82;;;3.08;;
47513;SDS011;33951;51.988;5.910;2023-03-05T07:41:43;10.63;;;3.53;;
47513;SDS011;33951;51.988;5.910;2023-03-05T07:46:39;8.18;;;3.63;;
47513;SDS011;33951;51.988;5.910;2023-03-05T07:49:05;12.95;;;3.05;;
47513;SDS011;33951;51.988;5.910;2023-03-05T07:51:31;10.57;;;2.80;;
47513;SDS011;33951;51.988;5.910;2023-03-05T07:53:57;7.32;;;3.42;;
47513;SDS011;33951;51.988;5.910;2023-03-05T07:56:30;8.65;;;2.90;;
47513;SDS011;33951;51.988;5.910;2023-03-05T07:58:59;5.55;;;2.80;;
47513;SDS011;33951;51.988;5.910;2023-03-05T08:01:27;3.95;;;2.25;;
47513;SDS011;33951;51.988;5.910;2023-03-05T08:03:53;10.70;;;3.25;;
47513;SDS011;33951;51.988;5.910;2023-03-05T08:06:19;10.23;;;2.90;;
47513;SDS011;33951;51.988;5.910;2023-03-05T08:08:45;7.38;;;2.63;;
47513;SDS011;33951;51.988;5.910;2023-03-05T08:11:12;10.32;;;4.18;;
47513;SDS011;33951;51.988;5.910;2023-03-05T08:13:42;9.13;;;3.20;;
47513;SDS011;33951;51.988;5.910;2023-03-05T08:16:10;6.95;;;3.40;;
47513;SDS011;33951;51.988;5.910;2023-03-05T08:18:38;7.28;;;2.95;;
47513;SDS011;33951;51.988;5.910;2023-03-05T08:21:04;7.90;;;3.10;;
47513;SDS011;33951;51.988;5.910;2023-03-05T08:23:32;8.52;;;3.33;;
47513;SDS011;33951;51.988;5.910;2023-03-05T08:25:58;5.57;;;3.17;;
47513;SDS011;33951;51.988;5.910;2023-03-05T08:28:24;20.48;;;3.88;;
47513;SDS011;33951;51.988;5.910;2023-03-05T08:30:50;7.05;;;3.42;;
47513;SDS011;33951;51.988;5.910;2023-03-05T08:33:16;8.95;;;3.42;;
47513;SDS011;33951;51.988;5.910;2023-03-05T08:35:42;7.60;;;2.80;;
47513;SDS011;33951;51.988;5.910;2023-03-05T08:38:08;6.93;;;3.15;;
47513;SDS011;33951;51.988;5.910;2023-03-05T08:40:34;11.25;;;3.30;;
47513;SDS011;33951;51.988;5.910;2023-03-05T08:42:59;5.50;;;3.38;;
47513;SDS011;33951;51.988;5.910;2023-03-05T08:45:25;12.35;;;3.30;;
47513;SDS011;33951;51.988;5.910;2023-03-05T08:47:52;6.05;;;2.78;;
47513;SDS011;33951;51.988;5.910;2023-03-05T08:50:20;7.10;;;2.58;;
47513;SDS011;33951;51.988;5.910;2023-03-05T08:52:47;7.45;;;2.35;;
47513;SDS011;33951;51.988;5.910;2023-03-05T08:55:13;10.25;;;2.88;;
47513;SDS011;33951;51.988;5.910;2023-03-05T08:57:39;6.03;;;2.33;;
47513;SDS011;33951;51.988;5.910;2023-03-05T09:00:05;3.10;;;1.75;;
47513;SDS011;33951;51.988;5.910;2023-03-05T09:02:31;5.03;;;2.22;;
47513;SDS011;33951;51.988;5.910;2023-03-05T09:04:57;4.05;;;1.70;;
47513;SDS011;33951;51.988;5.910;2023-03-05T09:07:23;5.00;;;1.90;;
47513;SDS011;33951;51.988;5.910;2023-03-05T09:09:48;4.47;;;1.83;;
47513;SDS011;33951;51.988;5.910;2023-03-05T09:12:14;4.60;;;1.73;;
47513;SDS011;33951;51.988;5.910;2023-03-05T09:14:40;5.65;;;2.75;;
47513;SDS011;33951;51.988;5.910;2023-03-05T09:17:06;3.97;;;1.88;;
47513;SDS011;33951;51.988;5.910;2023-03-05T09:19:32;7.65;;;1.80;;
47513;SDS011;33951;51.988;5.910;2023-03-05T09:21:57;7.10;;;1.88;;
47513;SDS011;33951;51.988;5.910;2023-03-05T09:24:23;4.75;;;2.17;;
47513;SDS011;33951;51.988;5.910;2023-03-05T09:26:52;5.05;;;2.30;;
47513;SDS011;33951;51.988;5.910;2023-03-05T09:29:17;5.47;;;1.80;;
47513;SDS011;33951;51.988;5.910;2023-03-05T09:31:43;4.78;;;1.80;;
47513;SDS011;33951;51.988;5.910;2023-03-05T09:34:09;4.05;;;2.08;;
47513;SDS011;33951;51.988;5.910;2023-03-05T09:36:35;3.90;;;1.60;;
47513;SDS011;33951;51.988;5.910;2023-03-05T09:39:01;7.82;;;2.45;;
47513;SDS011;33951;51.988;5.910;2023-03-05T09:44:28;5.63;;;2.20;;
47513;SDS011;33951;51.988;5.910;2023-03-05T09:47:29;3.65;;;1.77;;
47513;SDS011;33951;51.988;5.910;2023-03-05T09:50:10;6.03;;;2.05;;
47513;SDS011;33951;51.988;5.910;2023-03-05T09:52:57;2.75;;;1.95;;
47513;SDS011;33951;51.988;5.910;2023-03-05T09:55:37;3.17;;;1.77;;
47513;SDS011;33951;51.988;5.910;2023-03-05T09:58:06;3.92;;;2.10;;
47513;SDS011;33951;51.988;5.910;2023-03-05T10:00:40;3.33;;;1.85;;
47513;SDS011;33951;51.988;5.910;2023-03-05T10:03:23;1.85;;;1.42;;
47513;SDS011;33951;51.988;5.910;2023-03-05T10:08:31;2.42;;;1.50;;
47513;SDS011;33951;51.988;5.910;2023-03-05T10:11:24;7.00;;;2.40;;
47513;SDS011;33951;51.988;5.910;2023-03-05T10:13:58;5.97;;;2.60;;
47513;SDS011;33951;51.988;5.910;2023-03-05T10:19:18;7.25;;;1.80;;
47513;SDS011;33951;51.988;5.910;2023-03-05T10:22:11;4.95;;;1.83;;
47513;SDS011;33951;51.988;5.910;2023-03-05T10:27:50;3.35;;;1.70;;
47513;SDS011;33951;51.988;5.910;2023-03-05T10:30:32;5.20;;;1.60;;
47513;SDS011;33951;51.988;5.910;2023-03-05T10:41:24;5.13;;;1.92;;
47513;SDS011;33951;51.988;5.910;2023-03-05T10:44:15;4.40;;;2.20;;
47513;SDS011;33951;51.988;5.910;2023-03-05T10:46:56;3.80;;;1.88;;
47513;SDS011;33951;51.988;5.910;2023-03-05T10:49:25;5.20;;;2.10;;
47513;SDS011;33951;51.988;5.910;2023-03-05T10:54:42;4.05;;;1.67;;
47513;SDS011;33951;51.988;5.910;2023-03-05T11:00:00;2.42;;;1.17;;
47513;SDS011;33951;51.988;5.910;2023-03-05T11:03:02;3.63;;;1.27;;
47513;SDS011;33951;51.988;5.910;2023-03-05T11:13:43;5.20;;;1.55;;
47513;SDS011;33951;51.988;5.910;2023-03-05T11:18:44;2.97;;;1.30;;
47513;SDS011;33951;51.988;5.910;2023-03-05T11:21:21;4.20;;;1.50;;
47513;SDS011;33951;51.988;5.910;2023-03-05T11:24:04;2.80;;;1.67;;
47513;SDS011;33951;51.988;5.910;2023-03-05T11:26:44;3.38;;;1.30;;
47513;SDS011;33951;51.988;5.910;2023-03-05T11:29:19;4.22;;;1.80;;
47513;SDS011;33951;51.988;5.910;2023-03-05T11:31:45;3.42;;;1.70;;
47513;SDS011;33951;51.988;5.910;2023-03-05T11:39:16;6.88;;;2.42;;
47513;SDS011;33951;51.988;5.910;2023-03-05T11:44:15;2.38;;;1.40;;
47513;SDS011;33951;51.988;5.910;2023-03-05T11:46:56;3.90;;;1.30;;
47513;SDS011;33951;51.988;5.910;2023-03-05T11:49:24;5.15;;;1.65;;
47513;SDS011;33951;51.988;5.910;2023-03-05T11:54:51;4.95;;;1.77;;
47513;SDS011;33951;51.988;5.910;2023-03-05T11:57:43;7.57;;;1.77;;
47513;SDS011;33951;51.988;5.910;2023-03-05T12:00:33;6.13;;;1.95;;
47513;SDS011;33951;51.988;5.910;2023-03-05T12:03:06;2.75;;;1.05;;
47513;SDS011;33951;51.988;5.910;2023-03-05T12:05:40;4.68;;;1.67;;
47513;SDS011;33951;51.988;5.910;2023-03-05T12:08:23;3.65;;;1.38;;
47513;SDS011;33951;51.988;5.910;2023-03-05T12:10:57;4.97;;;2.08;;
47513;SDS011;33951;51.988;5.910;2023-03-05T12:13:29;3.33;;;1.42;;
47513;SDS011;33951;51.988;5.910;2023-03-05T12:16:27;5.43;;;1.73;;
47513;SDS011;33951;51.988;5.910;2023-03-05T12:19:00;3.35;;;1.45;;
47513;SDS011;33951;51.988;5.910;2023-03-05T12:21:52;4.00;;;1.40;;
47513;SDS011;33951;51.988;5.910;2023-03-05T12:29:36;7.18;;;2.13;;
47513;SDS011;33951;51.988;5.910;2023-03-05T12:32:50;5.57;;;2.72;;
47513;SDS011;33951;51.988;5.910;2023-03-05T12:34:59;3.53;;;1.58;;
47513;SDS011;33951;51.988;5.910;2023-03-05T12:42:45;5.78;;;1.85;;
47513;SDS011;33951;51.988;5.910;2023-03-05T12:47:38;6.65;;;1.80;;
47513;SDS011;33951;51.988;5.910;2023-03-05T12:50:50;2.70;;;1.20;;
47513;SDS011;33951;51.988;5.910;2023-03-05T12:52:52;5.35;;;1.60;;
47513;SDS011;33951;51.988;5.910;2023-03-05T12:55:30;6.05;;;1.30;;
47513;SDS011;33951;51.988;5.910;2023-03-05T12:58:02;4.70;;;1.17;;
47513;SDS011;33951;51.988;5.910;2023-03-05T13:03:35;1.67;;;1.15;;
47513;SDS011;33951;51.988;5.910;2023-03-05T13:06:19;2.75;;;1.30;;
47513;SDS011;33951;51.988;5.910;2023-03-05T13:09:03;2.75;;;1.77;;
47513;SDS011;33951;51.988;5.910;2023-03-05T13:15:12;4.82;;;1.73;;
47513;SDS011;33951;51.988;5.910;2023-03-05T13:17:22;1.85;;;1.13;;
47513;SDS011;33951;51.988;5.910;2023-03-05T13:19:56;7.72;;;2.55;;
47513;SDS011;33951;51.988;5.910;2023-03-05T13:22:24;11.40;;;2.42;;
47513;SDS011;33951;51.988;5.910;2023-03-05T13:27:54;4.28;;;1.77;;
47513;SDS011;33951;51.988;5.910;2023-03-05T13:30:36;6.95;;;1.73;;
47513;SDS011;33951;51.988;5.910;2023-03-05T13:33:21;3.08;;;1.10;;
47513;SDS011;33951;51.988;5.910;2023-03-05T13:35:51;2.45;;;1.17;;
47513;SDS011;33951;51.988;5.910;2023-03-05T13:38:21;7.15;;;1.45;;
47513;SDS011;33951;51.988;5.910;2023-03-05T13:41:15;3.95;;;1.40;;
47513;SDS011;33951;51.988;5.910;2023-03-05T13:43:45;4.45;;;1.50;;
47513;SDS011;33951;51.988;5.910;2023-03-05T13:49:16;3.92;;;1.45;;
47513;SDS011;33951;51.988;5.910;2023-03-05T13:51:51;3.08;;;1.50;;
47513;SDS011;33951;51.988;5.910;2023-03-05T13:54:30;2.28;;;1.10;;
47513;SDS011;33951;51.988;5.910;2023-03-05T13:56:58;5.05;;;1.52;;
47513;SDS011;33951;51.988;5.910;2023-03-05T13:59:29;3.92;;;1.42;;
47513;SDS011;33951;51.988;5.910;2023-03-05T14:01:58;5.30;;;1.50;;
47513;SDS011;33951;51.988;5.910;2023-03-05T14:04:29;4.93;;;1.80;;
47513;SDS011;33951;51.988;5.910;2023-03-05T14:07:01;4.30;;;1.73;;
47513;SDS011;33951;51.988;5.910;2023-03-05T14:09:51;6.35;;;1.42;;
47513;SDS011;33951;51.988;5.910;2023-03-05T14:12:33;2.65;;;1.10;;
47513;SDS011;33951;51.988;5.910;2023-03-05T14:15:19;2.47;;;1.08;;
47513;SDS011;33951;51.988;5.910;2023-03-05T14:17:52;3.22;;;1.30;;
47513;SDS011;33951;51.988;5.910;2023-03-05T14:20:38;3.20;;;1.38;;
47513;SDS011;33951;51.988;5.910;2023-03-05T14:23:34;2.17;;;1.10;;
47513;SDS011;33951;51.988;5.910;2023-03-05T14:31:21;4.63;;;1.38;;
47513;SDS011;33951;51.988;5.910;2023-03-05T14:33:48;2.00;;;0.88;;
47513;SDS011;33951;51.988;5.910;2023-03-05T14:36:29;5.93;;;1.55;;
47513;SDS011;33951;51.988;5.910;2023-03-05T14:39:31;3.47;;;1.55;;
47513;SDS011;33951;51.988;5.910;2023-03-05T14:44:56;3.83;;;1.10;;
47513;SDS011;33951;51.988;5.910;2023-03-05T14:47:41;2.53;;;1.40;;
47513;SDS011;33951;51.988;5.910;2023-03-05T14:53:44;5.68;;;1.35;;
47513;SDS011;33951;51.988;5.910;2023-03-05T14:56:22;1.55;;;0.75;;
47513;SDS011;33951;51.988;5.910;2023-03-05T14:58:52;3.38;;;1.13;;
47513;SDS011;33951;51.988;5.910;2023-03-05T15:01:24;1.63;;;1.10;;
47513;SDS011;33951;51.988;5.910;2023-03-05T15:03:55;3.00;;;1.10;;
47513;SDS011;33951;51.988;5.910;2023-03-05T15:06:33;3.97;;;1.30;;
47513;SDS011;33951;51.988;5.910;2023-03-05T15:09:12;1.17;;;0.98;;
47513;SDS011;33951;51.988;5.910;2023-03-05T15:11:50;1.33;;;0.82;;
47513;SDS011;33951;51.988;5.910;2023-03-05T15:14:24;2.03;;;0.98;;
47513;SDS011;33951;51.988;5.910;2023-03-05T15:17:41;4.03;;;1.13;;
47513;SDS011;33951;51.988;5.910;2023-03-05T15:20:20;1.30;;;1.13;;
47513;SDS011;33951;51.988;5.910;2023-03-05T15:22:51;4.50;;;1.40;;
47513;SDS011;33951;51.988;5.910;2023-03-05T15:25:22;2.90;;;0.95;;
47513;SDS011;33951;51.988;5.910;2023-03-05T15:27:52;3.58;;;1.13;;
47513;SDS011;33951;51.988;5.910;2023-03-05T15:30:23;2.83;;;1.25;;
47513;SDS011;33951;51.988;5.910;2023-03-05T15:32:49;4.55;;;1.50;;
47513;SDS011;33951;51.988;5.910;2023-03-05T15:35:18;3.90;;;1.20;;
47513;SDS011;33951;51.988;5.910;2023-03-05T15:37:44;1.88;;;1.20;;
47513;SDS011;33951;51.988;5.910;2023-03-05T15:40:13;6.07;;;1.50;;
47513;SDS011;33951;51.988;5.910;2023-03-05T15:42:40;5.15;;;1.40;;
47513;SDS011;33951;51.988;5.910;2023-03-05T15:45:06;3.13;;;1.27;;
47513;SDS011;33951;51.988;5.910;2023-03-05T15:47:32;3.58;;;1.48;;
47513;SDS011;33951;51.988;5.910;2023-03-05T15:49:58;5.05;;;1.40;;
47513;SDS011;33951;51.988;5.910;2023-03-05T15:52:23;5.43;;;1.52;;
47513;SDS011;33951;51.988;5.910;2023-03-05T15:54:49;3.20;;;2.13;;
47513;SDS011;33951;51.988;5.910;2023-03-05T15:57:21;2.33;;;1.30;;
47513;SDS011;33951;51.988;5.910;2023-03-05T15:59:46;4.95;;;2.10;;
47513;SDS011;33951;51.988;5.910;2023-03-05T16:02:12;3.92;;;1.40;;
47513;SDS011;33951;51.988;5.910;2023-03-05T16:04:41;3.28;;;1.55;;
47513;SDS011;33951;51.988;5.910;2023-03-05T16:07:07;7.95;;;1.50;;
47513;SDS011;33951;51.988;5.910;2023-03-05T16:09:36;3.85;;;1.92;;
47513;SDS011;33951;51.988;5.910;2023-03-05T16:12:06;5.15;;;1.90;;
47513;SDS011;33951;51.988;5.910;2023-03-05T16:14:36;3.03;;;1.75;;
47513;SDS011;33951;51.988;5.910;2023-03-05T16:17:02;3.65;;;2.20;;
47513;SDS011;33951;51.988;5.910;2023-03-05T16:19:29;3.33;;;1.95;;
47513;SDS011;33951;51.988;5.910;2023-03-05T16:21:58;4.00;;;2.10;;
47513;SDS011;33951;51.988;5.910;2023-03-05T16:24:24;5.28;;;2.78;;
47513;SDS011;33951;51.988;5.910;2023-03-05T16:26:50;8.45;;;3.45;;
47513;SDS011;33951;51.988;5.910;2023-03-05T16:29:15;4.03;;;2.92;;
47513;SDS011;33951;51.988;5.910;2023-03-05T16:31:41;7.20;;;3.70;;
47513;SDS011;33951;51.988;5.910;2023-03-05T16:34:11;4.68;;;2.78;;
47513;SDS011;33951;51.988;5.910;2023-03-05T16:36:45;3.22;;;2.42;;
47513;SDS011;33951;51.988;5.910;2023-03-05T16:39:16;3.90;;;2.70;;
47513;SDS011;33951;51.988;5.910;2023-03-05T16:41:43;5.75;;;2.80;;
47513;SDS011;33951;51.988;5.910;2023-03-05T16:44:09;4.03;;;2.83;;
47513;SDS011;33951;51.988;5.910;2023-03-05T16:46:35;5.22;;;3.20;;
47513;SDS011;33951;51.988;5.910;2023-03-05T16:49:01;7.75;;;3.42;;
47513;SDS011;33951;51.988;5.910;2023-03-05T16:51:27;4.82;;;3.30;;
47513;SDS011;33951;51.988;5.910;2023-03-05T16:53:53;9.52;;;4.40;;
47513;SDS011;33951;51.988;5.910;2023-03-05T16:56:24;7.95;;;4.28;;
47513;SDS011;33951;51.988;5.910;2023-03-05T16:58:50;5.65;;;4.07;;
47513;SDS011;33951;51.988;5.910;2023-03-05T17:01:19;7.80;;;4.82;;
47513;SDS011;33951;51.988;5.910;2023-03-05T17:03:45;7.95;;;4.47;;
47513;SDS011;33951;51.988;5.910;2023-03-05T17:06:18;6.35;;;4.70;;
47513;SDS011;33951;51.988;5.910;2023-03-05T17:08:48;9.90;;;4.38;;
47513;SDS011;33951;51.988;5.910;2023-03-05T17:11:17;7.28;;;4.30;;
47513;SDS011;33951;51.988;5.910;2023-03-05T17:13:43;7.80;;;5.18;;
47513;SDS011;33951;51.988;5.910;2023-03-05T18:39:00;12.50;;;6.72;;
47513;SDS011;33951;51.988;5.910;2023-03-05T18:41:26;7.10;;;5.25;;
47513;SDS011;33951;51.988;5.910;2023-03-05T18:43:52;10.88;;;5.97;;
47513;SDS011;33951;51.988;5.910;2023-03-05T18:46:18;8.32;;;5.47;;
47513;SDS011;33951;51.988;5.910;2023-03-05T18:48:44;9.45;;;6.28;;
47513;SDS011;33951;51.988;5.910;2023-03-05T18:51:16;10.50;;;6.18;;
47513;SDS011;33951;51.988;5.910;2023-03-05T18:53:43;12.88;;;6.47;;
47513;SDS011;33951;51.988;5.910;2023-03-05T18:56:09;9.43;;;5.80;;
47513;SDS011;33951;51.988;5.910;2023-03-05T18:58:35;12.70;;;6.38;;
47513;SDS011;33951;51.988;5.910;2023-03-05T19:01:02;10.77;;;6.50;;
47513;SDS011;33951;51.988;5.910;2023-03-05T19:03:28;9.85;;;6.50;;
47513;SDS011;33951;51.988;5.910;2023-03-05T19:05:54;11.13;;;5.68;;
47513;SDS011;33951;51.988;5.910;2023-03-05T19:08:27;8.88;;;5.72;;
47513;SDS011;33951;51.988;5.910;2023-03-05T19:10:58;9.77;;;5.45;;
47513;SDS011;33951;51.988;5.910;2023-03-05T19:13:37;13.70;;;5.35;;
47513;SDS011;33951;51.988;5.910;2023-03-05T19:16:28;7.82;;;5.20;;
47513;SDS011;33951;51.988;5.910;2023-03-05T19:21:40;9.52;;;5.50;;
47513;SDS011;33951;51.988;5.910;2023-03-05T19:24:08;10.18;;;6.53;;
47513;SDS011;33951;51.988;5.910;2023-03-05T19:26:34;15.65;;;6.40;;
47513;SDS011;33951;51.988;5.910;2023-03-05T19:29:00;10.23;;;5.95;;
47513;SDS011;33951;51.988;5.910;2023-03-05T19:31:26;9.07;;;6.35;;
47513;SDS011;33951;51.988;5.910;2023-03-05T19:33:52;10.27;;;6.13;;
47513;SDS011;33951;51.988;5.910;2023-03-05T19:36:18;9.10;;;6.30;;
47513;SDS011;33951;51.988;5.910;2023-03-05T19:38:44;10.35;;;5.82;;
47513;SDS011;33951;51.988;5.910;2023-03-05T19:41:10;9.10;;;6.93;;
47513;SDS011;33951;51.988;5.910;2023-03-05T19:43:37;13.02;;;6.22;;
47513;SDS011;33951;51.988;5.910;2023-03-05T19:46:10;9.40;;;5.72;;
47513;SDS011;33951;51.988;5.910;2023-03-05T19:48:36;11.38;;;6.45;;
47513;SDS011;33951;51.988;5.910;2023-03-05T19:51:06;8.43;;;5.85;;
47513;SDS011;33951;51.988;5.910;2023-03-05T19:53:34;11.65;;;5.90;;
47513;SDS011;33951;51.988;5.910;2023-03-05T19:56:02;9.50;;;6.07;;
47513;SDS011;33951;51.988;5.910;2023-03-05T20:00:56;8.40;;;6.35;;
47513;SDS011;33951;51.988;5.910;2023-03-05T20:03:30;9.32;;;5.88;;
47513;SDS011;33951;51.988;5.910;2023-03-05T20:05:56;13.43;;;5.70;;
47513;SDS011;33951;51.988;5.910;2023-03-05T20:08:22;12.43;;;6.60;;
47513;SDS011;33951;51.988;5.910;2023-03-05T20:10:47;8.00;;;6.05;;
47513;SDS011;33951;51.988;5.910;2023-03-05T20:13:13;10.32;;;5.13;;
47513;SDS011;33951;51.988;5.910;2023-03-05T20:15:39;11.88;;;5.20;;
47513;SDS011;33951;51.988;5.910;2023-03-05T20:18:04;9.63;;;4.90;;
47513;SDS011;33951;51.988;5.910;2023-03-05T20:20:31;8.50;;;4.80;;
47513;SDS011;33951;51.988;5.910;2023-03-05T20:22:58;7.55;;;4.55;;
47513;SDS011;33951;51.988;5.910;2023-03-05T20:25:24;7.88;;;4.43;;
47513;SDS011;33951;51.988;5.910;2023-03-05T20:27:50;12.00;;;5.32;;
47513;SDS011;33951;51.988;5.910;2023-03-05T20:30:19;10.90;;;4.93;;
47513;SDS011;33951;51.988;5.910;2023-03-05T20:32:51;12.55;;;5.25;;
47513;SDS011;33951;51.988;5.910;2023-03-05T20:35:17;7.82;;;5.03;;
47513;SDS011;33951;51.988;5.910;2023-03-05T20:37:43;9.32;;;5.05;;
47513;SDS011;33951;51.988;5.910;2023-03-05T20:40:15;10.73;;;4.60;;
47513;SDS011;33951;51.988;5.910;2023-03-05T20:42:44;9.32;;;4.47;;
47513;SDS011;33951;51.988;5.910;2023-03-05T20:45:10;5.85;;;4.10;;
47513;SDS011;33951;51.988;5.910;2023-03-05T20:47:36;9.30;;;4.30;;
47513;SDS011;33951;51.988;5.910;2023-03-05T20:50:05;9.30;;;4.53;;
47513;SDS011;33951;51.988;5.910;2023-03-05T20:52:38;7.63;;;5.22;;
47513;SDS011;33951;51.988;5.910;2023-03-05T20:55:06;6.38;;;3.88;;
47513;SDS011;33951;51.988;5.910;2023-03-05T20:57:33;8.25;;;3.97;;
47513;SDS011;33951;51.988;5.910;2023-03-05T21:00:10;7.82;;;4.40;;
47513;SDS011;33951;51.988;5.910;2023-03-05T21:02:42;10.70;;;5.65;;
47513;SDS011;33951;51.988;5.910;2023-03-05T21:05:08;12.23;;;5.70;;
47513;SDS011;33951;51.988;5.910;2023-03-05T21:07:34;8.13;;;4.30;;
47513;SDS011;33951;51.988;5.910;2023-03-05T21:09:59;10.32;;;4.47;;
47513;SDS011;33951;51.988;5.910;2023-03-05T21:12:28;7.78;;;3.80;;
47513;SDS011;33951;51.988;5.910;2023-03-05T21:14:56;6.07;;;3.90;;
47513;SDS011;33951;51.988;5.910;2023-03-05T21:17:21;6.97;;;3.97;;
47513;SDS011;33951;51.988;5.910;2023-03-05T21:19:50;9.82;;;4.35;;
47513;SDS011;33951;51.988;5.910;2023-03-05T21:22:19;9.30;;;4.60;;
47513;SDS011;33951;51.988;5.910;2023-03-05T21:24:47;8.02;;;4.63;;
47513;SDS011;33951;51.988;5.910;2023-03-05T21:27:36;7.32;;;4.50;;
47513;SDS011;33951;51.988;5.910;2023-03-05T22:02:29;5.57;;;3.53;;
47513;SDS011;33951;51.988;5.910;2023-03-05T22:04:55;6.38;;;3.17;;
47513;SDS011;33951;51.988;5.910;2023-03-05T22:07:21;5.70;;;3.25;;
47513;SDS011;33951;51.988;5.910;2023-03-05T22:09:52;5.00;;;2.95;;
47513;SDS011;33951;51.988;5.910;2023-03-05T22:12:18;8.13;;;3.28;;
47513;SDS011;33951;51.988;5.910;2023-03-05T22:14:54;8.40;;;4.07;;
47513;SDS011;33951;51.988;5.910;2023-03-05T22:17:19;7.90;;;3.30;;
47513;SDS011;33951;51.988;5.910;2023-03-05T22:19:45;6.45;;;3.45;;
47513;SDS011;33951;51.988;5.910;2023-03-05T22:22:10;9.30;;;3.22;;
47513;SDS011;33951;51.988;5.910;2023-03-05T22:24:36;6.32;;;3.53;;
47513;SDS011;33951;51.988;5.910;2023-03-05T22:27:02;8.73;;;3.85;;